createdAt,value
2023-01-17T00:01:50.149Z,4.40
2023-01-17T00:04:11.095Z,4.40
2023-01-17T00:06:39.877Z,4.60
2023-01-17T00:09:00.863Z,4.40
2023-01-17T00:11:10.564Z,4.40
2023-01-17T00:13:13.229Z,4.40
2023-01-17T00:15:17.653Z,4.30
2023-01-17T00:17:20.215Z,4.40
2023-01-17T00:19:40.691Z,4.30
2023-01-17T00:22:01.571Z,4.30
2023-01-17T00:24:26.520Z,4.20
2023-01-17T00:26:30.768Z,4.20
2023-01-17T00:28:34.270Z,4.20
2023-01-17T00:30:36.388Z,4.20
2023-01-17T00:32:38.375Z,4.10
2023-01-17T00:34:40.306Z,4.30
2023-01-17T00:36:42.331Z,4.10
2023-01-17T00:38:44.266Z,4.00
2023-01-17T00:40:46.282Z,4.00
2023-01-17T00:42:54.220Z,4.00
2023-01-17T00:45:14.644Z,4.00
2023-01-17T00:47:35.345Z,3.90
2023-01-17T00:49:58.336Z,3.70
2023-01-17T00:52:19.339Z,3.80
2023-01-17T00:54:39.936Z,3.80
2023-01-17T00:57:00.613Z,3.80
2023-01-17T00:59:22.440Z,3.80
2023-01-17T01:01:43.282Z,3.80
2023-01-17T01:04:06.798Z,3.90
2023-01-17T01:06:27.424Z,3.90
2023-01-17T01:08:48.075Z,3.90
2023-01-17T01:11:08.926Z,3.90
2023-01-17T01:13:29.506Z,3.90
2023-01-17T01:15:54.758Z,3.80
2023-01-17T01:18:15.459Z,3.90
2023-01-17T01:20:36.558Z,4.00
2023-01-17T01:22:57.289Z,3.90
2023-01-17T01:25:18.160Z,3.90
2023-01-17T01:27:38.741Z,3.90
2023-01-17T01:29:59.784Z,3.90
2023-01-17T01:32:20.619Z,3.90
2023-01-17T01:34:23.114Z,3.90
2023-01-17T01:36:25.615Z,3.90
2023-01-17T01:38:28.070Z,3.90
2023-01-17T01:40:30.539Z,3.90
2023-01-17T01:42:34.150Z,3.90
2023-01-17T01:44:42.784Z,3.90
2023-01-17T01:46:49.567Z,3.90
2023-01-17T01:48:54.425Z,3.90
2023-01-17T01:50:57.024Z,3.90
2023-01-17T01:53:00.922Z,3.80
2023-01-17T01:55:05.199Z,3.80
2023-01-17T01:57:09.013Z,3.90
2023-01-17T01:59:15.124Z,3.90
2023-01-17T02:01:20.175Z,3.90
2023-01-17T02:03:24.490Z,3.90
2023-01-17T02:05:32.822Z,3.80
2023-01-17T02:07:39.811Z,3.80
2023-01-17T02:09:44.381Z,3.80
2023-01-17T02:11:49.358Z,3.80
2023-01-17T02:13:51.872Z,3.80
2023-01-17T02:15:59.990Z,3.80
2023-01-17T02:18:05.395Z,3.80
2023-01-17T02:20:27.586Z,3.80
2023-01-17T02:22:42.215Z,3.80
2023-01-17T02:24:54.130Z,3.80
2023-01-17T02:26:59.690Z,3.80
2023-01-17T02:29:15.344Z,3.70
2023-01-17T02:31:19.715Z,3.70
2023-01-17T02:33:25.418Z,3.70
2023-01-17T02:35:32.889Z,3.70
2023-01-17T02:37:37.258Z,3.70
2023-01-17T02:39:41.970Z,3.70
2023-01-17T02:41:46.159Z,3.70
2023-01-17T02:43:49.375Z,3.70
2023-01-17T02:45:54.687Z,3.70
2023-01-17T02:47:57.221Z,3.70
2023-01-17T02:50:01.584Z,3.60
2023-01-17T02:52:13.574Z,3.60
2023-01-17T02:54:35.222Z,3.40
2023-01-17T02:56:41.574Z,3.20
2023-01-17T02:58:51.738Z,2.90
2023-01-17T03:00:58.230Z,2.80
2023-01-17T03:03:09.781Z,2.70
2023-01-17T03:05:13.649Z,2.60
2023-01-17T03:07:17.749Z,2.60
2023-01-17T03:09:21.058Z,2.50
2023-01-17T03:11:23.526Z,2.50
2023-01-17T03:13:33.184Z,2.50
2023-01-17T03:15:35.783Z,2.50
2023-01-17T03:17:38.979Z,2.50
2023-01-17T03:19:42.640Z,2.50
2023-01-17T03:21:45.209Z,2.50
2023-01-17T03:23:47.698Z,2.50
2023-01-17T03:25:50.201Z,2.60
2023-01-17T03:27:58.839Z,2.50
2023-01-17T03:30:04.306Z,2.50
2023-01-17T03:32:07.966Z,2.50
2023-01-17T03:34:10.541Z,2.50
2023-01-17T03:36:14.746Z,2.50
2023-01-17T03:38:17.234Z,2.40
2023-01-17T03:40:19.696Z,2.40
2023-01-17T03:42:23.723Z,2.30
2023-01-17T03:44:29.233Z,2.30
2023-01-17T03:46:31.733Z,2.20
2023-01-17T03:48:34.278Z,2.10
2023-01-17T03:50:36.817Z,2.00
2023-01-17T03:52:39.426Z,2.00
2023-01-17T03:54:41.905Z,1.90
2023-01-17T03:56:45.221Z,1.80
2023-01-17T03:58:49.889Z,1.80
2023-01-17T04:01:03.241Z,1.60
2023-01-17T04:03:05.854Z,1.60
2023-01-17T04:05:09.073Z,1.50
2023-01-17T04:07:11.552Z,1.40
2023-01-17T04:09:14.267Z,1.40
2023-01-17T04:11:18.864Z,1.40
2023-01-17T04:13:21.583Z,1.40
2023-01-17T04:15:24.071Z,1.40
2023-01-17T04:17:29.021Z,1.30
2023-01-17T04:19:33.652Z,1.30
2023-01-17T04:21:36.130Z,1.30
2023-01-17T04:23:38.697Z,1.30
2023-01-17T04:25:41.158Z,1.20
2023-01-17T04:27:44.640Z,1.30
2023-01-17T04:29:47.314Z,1.30
2023-01-17T04:31:51.797Z,1.30
2023-01-17T04:33:54.107Z,1.30
2023-01-17T04:35:57.755Z,1.40
2023-01-17T04:38:00.286Z,1.30
2023-01-17T04:40:10.153Z,1.30
2023-01-17T04:42:12.738Z,1.40
2023-01-17T04:44:15.186Z,1.40
2023-01-17T04:46:17.733Z,1.40
2023-01-17T04:48:20.343Z,1.50
2023-01-17T04:50:22.826Z,1.50
2023-01-17T04:54:48.864Z,1.50
2023-01-17T04:56:51.330Z,1.50
2023-01-17T04:58:55.722Z,1.50
2023-01-17T05:01:01.418Z,1.60
2023-01-17T05:03:04.091Z,1.60
2023-01-17T05:05:07.541Z,1.60
2023-01-17T05:07:10.052Z,1.60
2023-01-17T05:09:12.551Z,1.60
2023-01-17T05:11:15.035Z,1.60
2023-01-17T05:13:18.145Z,1.50
2023-01-17T05:15:20.633Z,1.60
2023-01-17T05:17:23.148Z,1.60
2023-01-17T05:19:26.540Z,1.60
2023-01-17T05:21:29.691Z,1.70
2023-01-17T05:23:34.696Z,1.70
2023-01-17T05:25:39.393Z,1.70
2023-01-17T05:27:41.883Z,1.80
2023-01-17T05:29:53.328Z,1.80
2023-01-17T05:31:55.980Z,1.80
2023-01-17T05:33:58.473Z,1.90
2023-01-17T05:36:03.203Z,1.90
2023-01-17T05:38:05.716Z,1.90
2023-01-17T05:40:12.511Z,1.90
2023-01-17T05:42:18.035Z,1.90
2023-01-17T05:44:20.543Z,1.90
2023-01-17T05:46:25.238Z,1.90
2023-01-17T05:48:27.747Z,2.00
2023-01-17T05:50:32.048Z,2.00
2023-01-17T05:52:34.551Z,2.00
2023-01-17T05:54:37.056Z,2.00
2023-01-17T05:56:39.543Z,2.00
2023-01-17T05:58:42.061Z,2.00
2023-01-17T06:00:44.531Z,2.00
2023-01-17T06:02:50.028Z,2.00
2023-01-17T06:04:52.753Z,1.90
2023-01-17T06:06:57.410Z,1.90
2023-01-17T06:09:10.537Z,1.90
2023-01-17T06:11:13.096Z,1.90
2023-01-17T06:13:17.368Z,2.00
2023-01-17T06:15:21.247Z,1.90
2023-01-17T06:17:23.809Z,2.00
2023-01-17T06:19:26.843Z,2.00
2023-01-17T06:21:29.940Z,1.90
2023-01-17T06:23:32.440Z,2.00
2023-01-17T06:25:36.620Z,2.00
2023-01-17T06:27:39.131Z,2.10
2023-01-17T06:29:41.689Z,2.00
2023-01-17T06:31:44.164Z,2.00
2023-01-17T06:33:48.577Z,2.00
2023-01-17T06:35:51.944Z,2.00
2023-01-17T06:37:55.215Z,2.10
2023-01-17T06:39:59.822Z,2.10
2023-01-17T06:42:02.152Z,2.10
2023-01-17T06:44:04.787Z,2.10
2023-01-17T06:46:07.309Z,2.00
2023-01-17T06:48:09.798Z,2.10
2023-01-17T06:50:15.912Z,2.10
2023-01-17T06:52:18.366Z,2.10
2023-01-17T06:54:26.213Z,2.00
2023-01-17T06:56:33.185Z,2.10
2023-01-17T06:58:35.894Z,2.10
2023-01-17T07:00:40.747Z,2.10
2023-01-17T07:02:44.493Z,2.00
2023-01-17T07:04:47.013Z,1.90
2023-01-17T07:06:49.476Z,1.90
2023-01-17T07:08:54.927Z,1.90
2023-01-17T07:10:59.403Z,1.90
2023-01-17T07:13:01.911Z,1.80
2023-01-17T07:15:07.072Z,1.90
2023-01-17T07:17:09.745Z,1.90
2023-01-17T07:19:12.633Z,1.90
2023-01-17T07:21:15.618Z,1.90
2023-01-17T07:23:18.819Z,1.90
2023-01-17T07:25:21.322Z,1.90
2023-01-17T07:27:26.646Z,1.90
2023-01-17T07:29:29.147Z,1.90
2023-01-17T07:31:34.505Z,1.90
2023-01-17T07:33:37.039Z,1.80
2023-01-17T07:35:39.952Z,1.90
2023-01-17T07:37:47.233Z,1.90
2023-01-17T07:39:49.738Z,1.90
2023-01-17T07:41:52.299Z,1.90
2023-01-17T07:43:56.400Z,1.90
2023-01-17T07:46:01.304Z,1.90
2023-01-17T07:48:05.657Z,1.80
2023-01-17T07:50:10.459Z,1.90
2023-01-17T07:52:13.001Z,1.90
2023-01-17T07:54:15.712Z,1.90
2023-01-17T07:56:22.243Z,1.90
2023-01-17T07:58:22.733Z,1.90
2023-01-17T08:00:29.178Z,1.90
2023-01-17T08:02:31.821Z,2.00
2023-01-17T08:04:34.856Z,1.90
2023-01-17T08:06:37.643Z,1.90
2023-01-17T08:08:49.934Z,1.90
2023-01-17T08:10:53.615Z,1.90
2023-01-17T08:12:56.178Z,1.90
2023-01-17T08:14:58.688Z,1.90
2023-01-17T08:17:04.411Z,2.00
2023-01-17T08:19:08.985Z,1.90
2023-01-17T08:21:18.338Z,1.90
2023-01-17T08:23:20.869Z,1.90
2023-01-17T08:25:24.203Z,1.90
2023-01-17T08:27:35.557Z,1.90
2023-01-17T08:29:40.555Z,1.90
2023-01-17T08:31:45.918Z,2.00
2023-01-17T08:33:48.510Z,2.10
2023-01-17T08:35:54.206Z,2.10
2023-01-17T08:37:59.122Z,2.20
2023-01-17T08:40:03.448Z,2.30
2023-01-17T08:42:05.958Z,2.30
2023-01-17T08:44:08.492Z,2.20
2023-01-17T08:46:11.013Z,2.30
2023-01-17T08:48:13.644Z,2.20
2023-01-17T08:50:19.955Z,2.20
2023-01-17T08:52:24.172Z,2.30
2023-01-17T08:54:30.994Z,2.30
2023-01-17T08:56:33.509Z,2.30
2023-01-17T08:58:38.946Z,2.40
2023-01-17T09:00:41.501Z,2.40
2023-01-17T09:02:45.106Z,2.50
2023-01-17T09:04:51.293Z,2.50
2023-01-17T09:06:53.802Z,2.50
2023-01-17T09:08:56.371Z,2.50
2023-01-17T09:11:01.434Z,2.60
2023-01-17T09:13:06.082Z,2.60
2023-01-17T09:15:09.151Z,2.50
2023-01-17T09:17:14.631Z,2.30
2023-01-17T09:19:20.222Z,2.20
2023-01-17T09:21:23.263Z,2.10
2023-01-17T09:23:28.288Z,2.00
2023-01-17T09:25:31.133Z,2.00
2023-01-17T09:27:33.800Z,2.00
2023-01-17T09:29:36.307Z,2.00
2023-01-17T09:31:39.918Z,2.00
2023-01-17T09:33:42.420Z,2.00
2023-01-17T09:35:45.267Z,2.00
2023-01-17T09:37:49.337Z,2.10
2023-01-17T09:39:51.911Z,2.00
2023-01-17T09:41:57.014Z,2.00
2023-01-17T09:44:04.519Z,2.10
2023-01-17T09:46:08.957Z,2.20
2023-01-17T09:48:15.945Z,2.20
2023-01-17T09:50:25.666Z,2.30
2023-01-17T09:52:31.326Z,2.40
2023-01-17T09:54:35.522Z,2.40
2023-01-17T09:56:39.810Z,2.50
2023-01-17T09:58:44.377Z,2.40
2023-01-17T10:00:58.716Z,2.50
2023-01-17T10:03:18.670Z,2.50
2023-01-17T10:05:27.864Z,2.50
2023-01-17T10:07:33.470Z,2.30
2023-01-17T10:09:40.679Z,2.50
2023-01-17T10:11:50.795Z,2.50
2023-01-17T10:14:01.429Z,2.50
2023-01-17T10:16:12.569Z,2.50
2023-01-17T10:18:30.068Z,2.50
2023-01-17T10:20:44.251Z,2.50
2023-01-17T10:23:01.995Z,2.50
2023-01-17T10:25:30.226Z,2.50
2023-01-17T10:27:34.008Z,2.50
2023-01-17T10:29:36.977Z,2.60
2023-01-17T10:31:41.339Z,2.60
2023-01-17T10:33:45.692Z,2.60
2023-01-17T10:35:58.565Z,2.60
2023-01-17T10:38:05.705Z,2.60
2023-01-17T10:40:18.049Z,2.70
2023-01-17T10:42:24.295Z,2.70
2023-01-17T10:44:29.946Z,2.80
2023-01-17T10:46:34.670Z,2.90
2023-01-17T10:48:42.249Z,2.80
2023-01-17T10:50:48.667Z,2.90
2023-01-17T10:52:57.709Z,2.90
2023-01-17T10:55:04.718Z,2.80
2023-01-17T10:57:09.462Z,2.90
2023-01-17T10:59:25.021Z,3.00
2023-01-17T11:01:27.683Z,3.10
2023-01-17T11:03:30.523Z,3.30
2023-01-17T11:05:35.922Z,3.60
2023-01-17T11:07:40.015Z,3.80
2023-01-17T11:09:43.864Z,4.10
2023-01-17T11:11:49.538Z,4.40
2023-01-17T11:13:54.371Z,4.50
2023-01-17T11:16:01.616Z,4.80
2023-01-17T11:18:06.568Z,4.80
2023-01-17T11:20:12.059Z,4.80
2023-01-17T11:22:18.147Z,4.90
2023-01-17T11:24:22.497Z,5.00
2023-01-17T11:26:25.874Z,4.90
2023-01-17T11:28:31.484Z,4.70
2023-01-17T11:30:37.252Z,4.60
2023-01-17T11:32:44.877Z,4.40
2023-01-17T11:34:50.429Z,4.50
2023-01-17T11:37:09.985Z,4.40
2023-01-17T11:39:25.456Z,4.30
2023-01-17T11:41:29.709Z,4.40
2023-01-17T11:43:32.239Z,4.50
2023-01-17T11:45:34.820Z,4.40
2023-01-17T11:47:37.293Z,4.30
2023-01-17T11:49:40.423Z,4.10
2023-01-17T11:51:45.723Z,3.90
2023-01-17T11:53:48.266Z,3.80
2023-01-17T11:55:56.190Z,3.70
2023-01-17T11:57:58.864Z,3.60
2023-01-17T12:00:05.136Z,3.60
2023-01-17T12:02:36.447Z,3.60
2023-01-17T12:04:40.910Z,3.70
2023-01-17T12:06:57.185Z,3.60
2023-01-17T12:08:57.360Z,3.70
2023-01-17T12:11:02.853Z,3.70
2023-01-17T12:13:25.798Z,3.70
2023-01-17T12:15:31.969Z,3.70
2023-01-17T12:17:46.250Z,3.70
2023-01-17T12:19:59.842Z,3.70
2023-01-17T12:22:06.811Z,4.00
2023-01-17T12:24:37.398Z,4.10
2023-01-17T12:26:41.645Z,4.20
2023-01-17T12:28:47.647Z,4.20
2023-01-17T12:30:54.637Z,4.20
2023-01-17T12:33:18.137Z,4.20
2023-01-17T12:35:22.541Z,4.00
2023-01-17T12:37:28.691Z,4.00
2023-01-17T12:39:36.323Z,4.00
2023-01-17T12:41:41.095Z,4.10
2023-01-17T12:43:44.187Z,4.00
2023-01-17T12:45:47.510Z,4.00
2023-01-17T12:47:53.904Z,4.10
2023-01-17T12:49:59.461Z,4.00
2023-01-17T12:52:04.907Z,4.30
2023-01-17T12:54:09.533Z,4.10
2023-01-17T12:56:13.809Z,4.10
2023-01-17T12:58:18.172Z,4.10
2023-01-17T13:00:22.693Z,4.10
2023-01-17T13:02:29.654Z,4.00
2023-01-17T13:04:42.030Z,4.00
2023-01-17T13:06:44.639Z,4.00
2023-01-17T13:08:49.098Z,3.90
2023-01-17T13:10:54.450Z,3.90
2023-01-17T13:13:02.521Z,3.90
2023-01-17T13:15:13.586Z,3.90
2023-01-17T13:17:21.615Z,3.80
2023-01-17T13:19:26.851Z,3.90
2023-01-17T13:21:34.294Z,3.90
2023-01-17T13:23:41.574Z,4.10
2023-01-17T13:25:46.178Z,4.20
2023-01-17T13:27:55.734Z,4.30
2023-01-17T13:30:23.921Z,4.40
2023-01-17T13:32:31.029Z,4.50
2023-01-17T13:34:38.108Z,4.60
2023-01-17T13:36:47.501Z,4.60
2023-01-17T13:38:57.288Z,4.60
2023-01-17T13:41:04.539Z,4.50
2023-01-17T13:43:15.755Z,4.40
2023-01-17T13:45:19.508Z,4.40
2023-01-17T13:47:43.361Z,4.40
2023-01-17T13:49:48.082Z,4.20
2023-01-17T13:52:04.211Z,4.10
2023-01-17T13:54:07.367Z,4.10
2023-01-17T13:56:12.793Z,4.10
2023-01-17T13:58:30.352Z,4.10
2023-01-17T14:01:00.925Z,4.10
2023-01-17T14:03:04.458Z,4.00
2023-01-17T14:05:08.957Z,3.90
2023-01-17T14:07:21.146Z,3.90
2023-01-17T14:09:25.476Z,4.00
2023-01-17T14:11:29.796Z,3.90
2023-01-17T14:13:35.595Z,3.90
2023-01-17T14:15:39.849Z,3.90
2023-01-17T14:17:54.519Z,3.90
2023-01-17T14:20:00.510Z,3.90
2023-01-17T14:22:22.246Z,4.00
2023-01-17T14:24:24.815Z,3.90
2023-01-17T14:26:46.438Z,4.00
2023-01-17T14:28:48.993Z,4.00
2023-01-17T14:30:55.237Z,4.10
2023-01-17T14:33:12.884Z,4.10
2023-01-17T14:35:19.683Z,4.10
2023-01-17T14:37:28.520Z,4.10
2023-01-17T14:39:31.102Z,4.10
2023-01-17T14:41:35.892Z,4.00
2023-01-17T14:43:40.597Z,4.00
2023-01-17T14:45:43.785Z,4.00
2023-01-17T14:47:46.270Z,3.80
2023-01-17T14:49:52.719Z,3.80
2023-01-17T14:52:01.737Z,3.80
2023-01-17T14:54:08.019Z,3.70
2023-01-17T14:56:14.760Z,3.70
2023-01-17T14:58:17.771Z,3.70
2023-01-17T15:00:21.411Z,3.70
2023-01-17T15:02:24.528Z,3.60
2023-01-17T15:04:28.380Z,3.60
2023-01-17T15:06:33.964Z,3.50
2023-01-17T15:08:36.758Z,3.60
2023-01-17T15:10:42.404Z,3.50
2023-01-17T15:12:49.107Z,3.50
2023-01-17T15:14:52.563Z,3.50
2023-01-17T15:16:55.094Z,3.50
2023-01-17T15:18:57.584Z,3.50
2023-01-17T15:21:01.846Z,3.50
2023-01-17T15:23:04.533Z,3.40
2023-01-17T15:25:10.015Z,3.30
2023-01-17T15:27:13.465Z,3.30
2023-01-17T15:29:19.327Z,3.30
2023-01-17T15:31:23.548Z,3.30
2023-01-17T15:33:26.300Z,3.20
2023-01-17T15:35:29.228Z,3.10
2023-01-17T15:37:32.864Z,3.10
2023-01-17T15:39:36.155Z,3.10
2023-01-17T15:41:40.072Z,3.10
2023-01-17T15:43:43.515Z,3.00
2023-01-17T15:45:54.802Z,3.00
2023-01-17T15:47:59.070Z,3.10
2023-01-17T15:50:02.755Z,3.00
2023-01-17T15:52:13.841Z,2.90
2023-01-17T15:54:48.693Z,2.70
2023-01-17T15:57:01.665Z,2.60
2023-01-17T15:59:30.125Z,2.50
2023-01-17T16:01:32.711Z,2.50
2023-01-17T16:03:55.593Z,2.50
2023-01-17T16:05:59.754Z,2.50
2023-01-17T16:08:20.161Z,2.50
2023-01-17T16:10:24.030Z,2.60
2023-01-17T16:12:26.561Z,2.50
2023-01-17T16:14:36.750Z,2.60
2023-01-17T16:16:35.614Z,2.60
2023-01-17T16:18:38.405Z,2.60
2023-01-17T16:20:42.701Z,2.40
2023-01-17T16:22:45.725Z,2.40
2023-01-17T16:24:53.758Z,2.40
2023-01-17T16:26:56.357Z,2.30
2023-01-17T16:28:58.856Z,2.20
2023-01-17T16:31:01.390Z,2.10
2023-01-17T16:33:04.064Z,1.80
2023-01-17T16:35:07.719Z,1.90
2023-01-17T16:37:10.961Z,1.90
2023-01-17T16:39:23.836Z,1.70
2023-01-17T16:41:29.317Z,1.70
2023-01-17T16:43:31.765Z,1.60
2023-01-17T16:45:38.642Z,1.60
2023-01-17T16:47:41.851Z,1.60
2023-01-17T16:49:46.050Z,1.70
2023-01-17T16:51:49.577Z,1.70
2023-01-17T16:53:53.333Z,1.70
2023-01-17T16:55:57.039Z,1.70
2023-01-17T16:57:59.658Z,1.70
2023-01-17T17:00:05.244Z,1.60
2023-01-17T17:02:09.159Z,1.60
2023-01-17T17:04:15.498Z,1.50
2023-01-17T17:06:18.153Z,1.30
2023-01-17T17:08:22.166Z,1.30
2023-01-17T17:10:26.693Z,1.20
2023-01-17T17:12:30.549Z,1.20
2023-01-17T17:14:37.095Z,1.20
2023-01-17T17:16:44.690Z,1.10
2023-01-17T17:18:53.855Z,1.10
2023-01-17T17:20:58.462Z,1.10
2023-01-17T17:23:02.698Z,1.00
2023-01-17T17:25:10.084Z,0.90
2023-01-17T17:27:14.053Z,0.90
2023-01-17T17:29:19.540Z,0.80
2023-01-17T17:31:24.992Z,0.80
2023-01-17T17:33:27.510Z,0.80
2023-01-17T17:35:29.993Z,0.90
2023-01-17T17:37:33.025Z,0.90
2023-01-17T17:39:35.525Z,0.90
2023-01-17T17:41:39.811Z,0.90
2023-01-17T17:43:42.312Z,0.80
2023-01-17T17:45:44.957Z,0.50
2023-01-17T17:48:02.686Z,0.50
2023-01-17T17:50:30.192Z,0.60
2023-01-17T17:52:34.370Z,0.60
2023-01-17T17:54:36.879Z,0.60
2023-01-17T17:56:40.081Z,0.50
2023-01-17T17:58:43.784Z,0.30
2023-01-17T18:00:47.804Z,0.10
2023-01-17T18:02:50.441Z,0.00
2023-01-17T18:04:53.046Z,0.00
2023-01-17T18:06:56.921Z,0.10
2023-01-17T18:08:59.431Z,0.20
2023-01-17T18:11:02.672Z,0.20
2023-01-17T18:13:06.107Z,0.30
2023-01-17T18:15:09.053Z,0.20
2023-01-17T18:17:13.391Z,0.20
2023-01-17T18:19:17.317Z,0.40
2023-01-17T18:21:22.966Z,0.30
2023-01-17T18:23:25.478Z,0.40
2023-01-17T18:25:27.991Z,0.30
2023-01-17T18:27:42.238Z,0.10
2023-01-17T18:29:44.744Z,0.00
2023-01-17T18:31:49.357Z,-0.20
2023-01-17T18:33:53.251Z,-0.20
2023-01-17T18:35:55.876Z,-0.20
2023-01-17T18:37:59.024Z,-0.20
2023-01-17T18:40:01.556Z,-0.10
2023-01-17T18:42:04.316Z,0.00
2023-01-17T18:44:07.465Z,0.10
2023-01-17T18:46:10.760Z,0.10
2023-01-17T18:48:13.315Z,0.10
2023-01-17T18:50:16.142Z,0.00
2023-01-17T18:52:20.362Z,0.00
2023-01-17T18:54:23.214Z,0.00
2023-01-17T18:56:27.842Z,0.00
2023-01-17T18:58:31.669Z,-0.10
2023-01-17T19:00:34.200Z,-0.10
2023-01-17T19:02:36.926Z,-0.10
2023-01-17T19:04:39.443Z,-0.10
2023-01-17T19:06:42.998Z,-0.20
2023-01-17T19:08:45.521Z,-0.20
2023-01-17T19:10:48.028Z,-0.20
2023-01-17T19:12:50.499Z,-0.20
2023-01-17T19:14:53.016Z,-0.20
2023-01-17T19:16:56.806Z,-0.20
2023-01-17T19:19:01.195Z,-0.20
2023-01-17T19:21:04.773Z,-0.30
2023-01-17T19:23:07.308Z,-0.20
2023-01-17T19:25:09.931Z,-0.20
2023-01-17T19:27:13.536Z,-0.20
2023-01-17T19:29:16.015Z,-0.20
2023-01-17T19:31:20.332Z,-0.30
2023-01-17T19:33:22.859Z,-0.40
2023-01-17T19:35:25.358Z,-0.50
2023-01-17T19:37:27.999Z,-0.40
2023-01-17T19:39:30.992Z,-0.40
2023-01-17T19:41:34.352Z,-0.50
2023-01-17T19:43:37.101Z,-0.60
2023-01-17T19:45:39.709Z,-0.60
2023-01-17T19:47:42.257Z,-0.50
2023-01-17T19:49:45.636Z,-0.60
2023-01-17T19:51:48.923Z,-0.50
2023-01-17T19:53:52.922Z,-0.40
2023-01-17T19:55:55.418Z,-0.30
2023-01-17T19:57:58.231Z,-0.40
2023-01-17T20:00:01.331Z,-0.40
2023-01-17T20:02:03.919Z,-0.40
2023-01-17T20:04:06.832Z,-0.30
2023-01-17T20:06:09.703Z,-0.30
2023-01-17T20:08:12.314Z,-0.30
2023-01-17T20:10:15.106Z,-0.30
2023-01-17T20:12:17.872Z,-0.30
2023-01-17T20:14:21.247Z,-0.30
2023-01-17T20:16:24.864Z,-0.40
2023-01-17T20:18:27.424Z,-0.40
2023-01-17T20:20:31.874Z,-0.40
2023-01-17T20:22:34.435Z,-0.60
2023-01-17T20:24:36.937Z,-0.50
2023-01-17T20:26:39.934Z,-0.40
2023-01-17T20:28:44.357Z,-0.40
2023-01-17T20:30:46.834Z,-0.40
2023-01-17T20:32:49.345Z,-0.50
2023-01-17T20:34:51.864Z,-0.50
2023-01-17T20:36:56.779Z,-0.50
2023-01-17T20:39:00.200Z,-0.50
2023-01-17T20:41:02.692Z,-0.70
2023-01-17T20:43:05.702Z,-0.70
2023-01-17T20:45:09.286Z,-0.70
2023-01-17T20:47:11.915Z,-0.70
2023-01-17T20:49:15.787Z,-0.60
2023-01-17T20:51:19.492Z,-0.50
2023-01-17T20:53:22.959Z,-0.50
2023-01-17T20:55:25.535Z,-0.50
2023-01-17T20:57:28.037Z,-0.60
2023-01-17T20:59:30.562Z,-0.60
2023-01-17T21:01:34.148Z,-0.60
2023-01-17T21:03:37.184Z,-0.50
2023-01-17T21:05:39.705Z,-0.50
2023-01-17T21:07:42.234Z,-0.70
2023-01-17T21:09:44.743Z,-0.80
2023-01-17T21:11:47.370Z,-0.80
2023-01-17T21:13:50.695Z,-0.90
2023-01-17T21:15:53.181Z,-1.00
2023-01-17T21:17:56.046Z,-1.00
2023-01-17T21:19:58.832Z,-0.80
2023-01-17T21:22:01.372Z,-0.80
2023-01-17T21:24:04.691Z,-0.80
2023-01-17T21:26:08.330Z,-0.80
2023-01-17T21:28:10.835Z,-0.80
2023-01-17T21:30:15.027Z,-0.70
2023-01-17T21:32:17.509Z,-0.70
2023-01-17T21:34:19.998Z,-0.60
2023-01-17T21:36:23.877Z,-0.60
2023-01-17T21:38:26.401Z,-0.60
2023-01-17T21:40:28.927Z,-0.60
2023-01-17T21:42:31.523Z,-0.70
2023-01-17T21:44:36.090Z,-0.70
2023-01-17T21:46:39.526Z,-0.70
2023-01-17T21:48:43.942Z,-0.60
2023-01-17T21:50:48.243Z,-0.80
2023-01-17T21:52:50.743Z,-0.70
2023-01-17T21:55:11.611Z,-0.70
2023-01-17T21:57:33.527Z,-0.90
2023-01-17T21:59:36.134Z,-1.00
2023-01-17T22:01:39.089Z,-0.90
2023-01-17T22:03:42.473Z,-0.70
2023-01-17T22:05:44.983Z,-0.70
2023-01-17T22:08:05.801Z,-0.70
2023-01-17T22:10:09.591Z,-0.70
2023-01-17T22:12:12.096Z,-0.70
2023-01-17T22:14:14.575Z,-0.70
2023-01-17T22:16:18.194Z,-0.70
2023-01-17T22:18:20.715Z,-0.70
2023-01-17T22:20:23.411Z,-0.90
2023-01-17T22:22:25.918Z,-0.90
2023-01-17T22:24:29.361Z,-0.80
2023-01-17T22:26:32.098Z,-0.80
2023-01-17T22:28:34.621Z,-0.80
2023-01-17T22:30:37.659Z,-0.90
2023-01-17T22:32:40.452Z,-0.80
2023-01-17T22:34:42.923Z,-0.80
2023-01-17T22:36:45.421Z,-0.80
2023-01-17T22:38:48.043Z,-0.80
2023-01-17T22:40:52.629Z,-0.80
2023-01-17T22:42:55.582Z,-0.80
2023-01-17T22:44:58.417Z,-0.90
2023-01-17T22:47:01.483Z,-0.90
2023-01-17T22:49:05.342Z,-0.90
2023-01-17T22:51:09.580Z,-1.00
2023-01-17T22:53:12.046Z,-1.00
2023-01-17T22:55:14.659Z,-0.90
2023-01-17T22:57:17.217Z,-1.10
2023-01-17T22:59:19.736Z,-1.00
2023-01-17T23:01:23.876Z,-1.00
2023-01-17T23:03:27.974Z,-1.30
2023-01-17T23:05:30.651Z,-1.50
2023-01-17T23:07:36.685Z,-1.60
2023-01-17T23:09:39.297Z,-1.70
2023-01-17T23:11:43.130Z,-1.70
2023-01-17T23:13:45.961Z,-1.70
2023-01-17T23:16:06.570Z,-1.80
2023-01-17T23:18:27.688Z,-1.80
2023-01-17T23:20:30.193Z,-1.80
2023-01-17T23:22:33.418Z,-1.70
2023-01-17T23:24:38.740Z,-1.70
2023-01-17T23:26:43.027Z,-1.70
2023-01-17T23:28:45.509Z,-1.70
2023-01-17T23:30:49.746Z,-1.60
2023-01-17T23:32:54.319Z,-1.50
2023-01-17T23:34:57.182Z,-1.40
2023-01-17T23:36:59.900Z,-1.30
2023-01-17T23:39:02.371Z,-1.30
2023-01-17T23:41:24.230Z,-1.20
2023-01-17T23:43:28.332Z,-1.30
2023-01-17T23:45:49.626Z,-1.20
2023-01-17T23:47:55.721Z,-1.20
2023-01-17T23:50:00.428Z,-1.20
2023-01-17T23:52:04.623Z,-1.20
2023-01-17T23:54:07.487Z,-1.30
2023-01-17T23:56:13.153Z,-1.30
2023-01-17T23:58:15.697Z,-1.40
